createdAt,value
2024-02-18T00:00:48.821Z,3.73
2024-02-18T00:03:37.088Z,3.72
2024-02-18T00:06:05.791Z,3.70
2024-02-18T00:08:33.836Z,3.70
2024-02-18T00:11:01.971Z,3.71
2024-02-18T00:13:30.007Z,3.68
2024-02-18T00:15:58.228Z,3.67
2024-02-18T00:18:28.440Z,3.66
2024-02-18T00:20:56.788Z,3.66
2024-02-18T00:23:24.927Z,3.66
2024-02-18T00:25:53.034Z,3.62
2024-02-18T00:28:21.064Z,3.59
2024-02-18T00:30:50.932Z,3.68
2024-02-18T00:33:19.932Z,3.83
2024-02-18T00:35:48.062Z,3.88
2024-02-18T00:38:16.069Z,3.94
2024-02-18T00:40:44.409Z,4.19
2024-02-18T00:43:12.506Z,4.37
2024-02-18T00:45:40.724Z,4.37
2024-02-18T00:48:09.055Z,4.26
2024-02-18T00:50:37.461Z,4.14
2024-02-18T00:53:24.584Z,4.06
2024-02-18T00:55:52.658Z,4.04
2024-02-18T00:58:20.910Z,4.01
2024-02-18T01:00:49.287Z,3.99
2024-02-18T01:03:17.645Z,3.98
2024-02-18T01:05:45.963Z,3.95
2024-02-18T01:08:14.816Z,3.92
2024-02-18T01:10:42.984Z,3.89
2024-02-18T01:13:11.136Z,3.83
2024-02-18T01:15:39.973Z,3.79
2024-02-18T01:18:08.213Z,3.75
2024-02-18T01:20:36.714Z,3.69
2024-02-18T01:23:04.785Z,3.66
2024-02-18T01:25:32.965Z,3.62
2024-02-18T01:28:01.332Z,3.56
2024-02-18T01:30:29.589Z,3.51
2024-02-18T01:32:57.907Z,3.47
2024-02-18T01:35:26.289Z,3.40
2024-02-18T01:37:54.451Z,3.33
2024-02-18T01:40:22.517Z,3.28
2024-02-18T01:42:50.770Z,3.23
2024-02-18T01:45:19.084Z,3.18
2024-02-18T01:47:47.938Z,3.14
2024-02-18T01:50:16.485Z,3.10
2024-02-18T01:52:49.553Z,3.08
2024-02-18T01:55:18.891Z,3.08
2024-02-18T01:57:47.875Z,3.09
2024-02-18T02:00:19.381Z,3.10
2024-02-18T02:02:50.706Z,3.09
2024-02-18T02:05:22.790Z,3.10
2024-02-18T02:07:51.774Z,3.12
2024-02-18T02:10:21.080Z,3.10
2024-02-18T02:12:49.386Z,3.10
2024-02-18T02:15:17.911Z,3.07
2024-02-18T02:17:46.460Z,3.04
2024-02-18T02:20:14.820Z,3.03
2024-02-18T02:22:43.283Z,3.00
2024-02-18T02:25:12.888Z,3.01
2024-02-18T02:27:54.755Z,3.00
2024-02-18T02:30:23.474Z,3.00
2024-02-18T02:32:51.858Z,2.99
2024-02-18T02:35:20.372Z,3.00
2024-02-18T02:37:49.139Z,2.98
2024-02-18T02:40:17.281Z,2.96
2024-02-18T02:42:45.543Z,2.94
2024-02-18T02:45:14.252Z,2.94
2024-02-18T02:47:42.367Z,2.92
2024-02-18T02:50:10.624Z,2.91
2024-02-18T02:52:41.943Z,2.88
2024-02-18T02:55:10.614Z,2.81
2024-02-18T02:57:39.555Z,2.78
2024-02-18T03:00:12.077Z,2.74
2024-02-18T03:02:41.010Z,2.70
2024-02-18T03:05:13.562Z,2.66
2024-02-18T03:07:41.809Z,2.65
2024-02-18T03:10:11.155Z,2.62
2024-02-18T03:12:39.647Z,2.59
2024-02-18T03:15:08.426Z,2.59
2024-02-18T03:17:37.457Z,2.59
2024-02-18T03:20:09.179Z,2.57
2024-02-18T03:22:37.445Z,2.54
2024-02-18T03:25:06.529Z,2.54
2024-02-18T03:27:34.738Z,2.52
2024-02-18T03:30:04.308Z,2.50
2024-02-18T03:32:36.741Z,2.49
2024-02-18T03:35:07.988Z,2.49
2024-02-18T03:37:36.206Z,2.54
2024-02-18T03:40:06.548Z,2.57
2024-02-18T03:42:34.737Z,2.56
2024-02-18T03:45:02.979Z,2.59
2024-02-18T03:47:31.674Z,2.59
2024-02-18T03:50:00.009Z,2.56
2024-02-18T03:52:28.321Z,2.58
2024-02-18T03:54:56.903Z,2.60
2024-02-18T03:57:25.144Z,2.62
2024-02-18T03:59:53.253Z,2.64
2024-02-18T04:02:21.834Z,2.62
2024-02-18T04:04:49.930Z,2.63
2024-02-18T04:07:18.491Z,2.62
2024-02-18T04:09:46.979Z,2.60
2024-02-18T04:12:15.142Z,2.59
2024-02-18T04:14:43.270Z,2.58
2024-02-18T04:17:11.594Z,2.56
2024-02-18T04:19:40.053Z,2.54
2024-02-18T04:22:08.550Z,2.54
2024-02-18T04:24:36.910Z,2.50
2024-02-18T04:27:10.251Z,2.40
2024-02-18T04:29:39.444Z,2.34
2024-02-18T04:32:08.719Z,2.31
2024-02-18T04:34:37.025Z,2.25
2024-02-18T04:37:05.690Z,2.19
2024-02-18T04:39:33.983Z,2.14
2024-02-18T04:42:02.303Z,2.12
2024-02-18T04:44:30.527Z,2.09
2024-02-18T04:46:58.617Z,2.05
2024-02-18T04:49:27.077Z,2.08
2024-02-18T04:51:55.461Z,2.13
2024-02-18T04:54:23.975Z,2.16
2024-02-18T04:56:52.439Z,2.10
2024-02-18T04:59:20.507Z,2.13
2024-02-18T05:01:49.550Z,2.16
2024-02-18T05:04:18.014Z,2.21
2024-02-18T05:06:50.579Z,2.21
2024-02-18T05:09:18.707Z,2.22
2024-02-18T05:11:46.987Z,2.22
2024-02-18T05:14:15.007Z,2.22
2024-02-18T05:16:43.812Z,2.22
2024-02-18T05:19:12.077Z,2.20
2024-02-18T05:21:42.152Z,2.19
2024-02-18T05:24:15.530Z,2.18
2024-02-18T05:26:44.174Z,2.17
2024-02-18T05:29:12.348Z,2.16
2024-02-18T05:31:40.465Z,2.12
2024-02-18T05:34:09.077Z,2.09
2024-02-18T05:36:40.660Z,2.09
2024-02-18T05:39:08.964Z,2.09
2024-02-18T05:41:37.047Z,2.06
2024-02-18T05:44:05.524Z,1.93
2024-02-18T05:46:34.080Z,1.79
2024-02-18T05:49:02.456Z,1.70
2024-02-18T05:51:33.310Z,1.68
2024-02-18T05:54:01.597Z,1.64
2024-02-18T05:56:29.657Z,1.62
2024-02-18T05:58:57.813Z,1.59
2024-02-18T06:01:26.023Z,1.57
2024-02-18T06:03:54.653Z,1.57
2024-02-18T06:06:22.872Z,1.56
2024-02-18T06:08:51.620Z,1.54
2024-02-18T06:11:21.013Z,1.53
2024-02-18T06:13:49.654Z,1.54
2024-02-18T06:16:18.676Z,1.58
2024-02-18T06:18:47.090Z,1.63
2024-02-18T06:21:25.109Z,1.66
2024-02-18T06:23:57.409Z,1.68
2024-02-18T06:26:25.781Z,1.63
2024-02-18T06:28:53.958Z,1.58
2024-02-18T06:31:23.354Z,1.52
2024-02-18T06:33:51.770Z,1.47
2024-02-18T06:36:20.310Z,1.49
2024-02-18T06:38:48.500Z,1.52
2024-02-18T06:41:16.840Z,1.56
2024-02-18T06:43:44.996Z,1.55
2024-02-18T06:46:13.652Z,1.52
2024-02-18T06:48:42.105Z,1.51
2024-02-18T06:51:10.702Z,1.54
2024-02-18T06:53:39.073Z,1.62
2024-02-18T06:56:07.711Z,1.71
2024-02-18T06:58:35.744Z,1.80
2024-02-18T07:01:04.117Z,1.84
2024-02-18T07:03:34.006Z,1.93
2024-02-18T07:06:02.346Z,2.05
2024-02-18T07:08:30.470Z,2.18
2024-02-18T07:10:58.967Z,2.32
2024-02-18T07:13:27.022Z,2.46
2024-02-18T07:15:56.041Z,2.64
2024-02-18T07:18:24.504Z,2.79
2024-02-18T07:20:52.676Z,2.90
2024-02-18T07:23:20.883Z,2.95
2024-02-18T07:25:49.029Z,2.93
2024-02-18T07:28:19.957Z,2.86
2024-02-18T07:30:48.115Z,2.79
2024-02-18T07:33:16.249Z,2.74
2024-02-18T07:35:44.295Z,2.71
2024-02-18T07:38:12.960Z,2.65
2024-02-18T07:40:41.101Z,2.55
2024-02-18T07:43:09.250Z,2.45
2024-02-18T07:45:37.508Z,2.39
2024-02-18T07:48:06.635Z,2.43
2024-02-18T07:50:35.355Z,2.50
2024-02-18T07:53:22.284Z,2.57
2024-02-18T07:55:50.916Z,2.71
2024-02-18T07:58:18.993Z,2.79
2024-02-18T08:00:47.857Z,2.91
2024-02-18T08:03:15.992Z,3.07
2024-02-18T08:05:44.191Z,3.24
2024-02-18T08:08:12.342Z,3.41
2024-02-18T08:10:40.581Z,3.57
2024-02-18T08:13:10.868Z,3.66
2024-02-18T08:15:39.228Z,3.80
2024-02-18T08:18:09.695Z,3.97
2024-02-18T08:20:41.457Z,4.15
2024-02-18T08:23:10.570Z,4.22
2024-02-18T08:25:38.870Z,4.25
2024-02-18T08:28:07.133Z,4.27
2024-02-18T08:30:35.429Z,4.28
2024-02-18T08:33:03.825Z,4.31
2024-02-18T08:35:31.980Z,4.41
2024-02-18T08:38:00.081Z,4.52
2024-02-18T08:40:28.258Z,4.64
2024-02-18T08:42:56.433Z,4.72
2024-02-18T08:45:24.701Z,4.83
2024-02-18T08:47:55.069Z,4.99
2024-02-18T08:50:23.698Z,5.10
2024-02-18T08:52:51.859Z,5.22
2024-02-18T08:55:19.905Z,5.34
2024-02-18T08:57:48.112Z,5.39
2024-02-18T09:00:19.249Z,5.44
2024-02-18T09:02:48.141Z,5.50
2024-02-18T09:05:16.726Z,5.59
2024-02-18T09:07:45.521Z,5.73
2024-02-18T09:10:13.813Z,5.86
2024-02-18T09:12:42.122Z,5.96
2024-02-18T09:15:13.304Z,6.02
2024-02-18T09:17:41.709Z,6.13
2024-02-18T09:20:10.446Z,6.34
2024-02-18T09:22:38.710Z,6.60
2024-02-18T09:25:07.687Z,6.88
2024-02-18T09:27:36.028Z,7.15
2024-02-18T09:30:04.514Z,7.42
2024-02-18T09:32:32.877Z,7.58
2024-02-18T09:35:01.045Z,7.64
2024-02-18T09:37:29.646Z,7.63
2024-02-18T09:39:58.066Z,7.56
2024-02-18T09:42:29.515Z,7.45
2024-02-18T09:44:59.045Z,7.36
2024-02-18T09:47:28.131Z,7.29
2024-02-18T09:49:56.832Z,7.24
2024-02-18T09:52:26.677Z,7.20
2024-02-18T09:54:55.987Z,7.15
2024-02-18T09:57:24.324Z,7.05
2024-02-18T09:59:52.666Z,7.02
2024-02-18T10:02:23.842Z,7.05
2024-02-18T10:04:52.152Z,7.13
2024-02-18T10:07:20.484Z,7.26
2024-02-18T10:09:48.606Z,7.43
2024-02-18T10:12:17.311Z,7.64
2024-02-18T10:14:56.266Z,7.78
2024-02-18T10:17:24.385Z,7.87
2024-02-18T10:19:52.530Z,7.91
2024-02-18T10:22:25.062Z,7.85
2024-02-18T10:24:55.181Z,7.74
2024-02-18T10:27:23.889Z,7.62
2024-02-18T10:29:53.419Z,7.48
2024-02-18T10:32:21.594Z,7.36
2024-02-18T10:34:50.821Z,7.28
2024-02-18T10:37:31.121Z,7.19
2024-02-18T10:40:06.521Z,7.07
2024-02-18T10:42:40.690Z,7.03
2024-02-18T10:45:10.623Z,7.09
2024-02-18T10:47:45.806Z,7.13
2024-02-18T10:50:18.616Z,7.24
2024-02-18T10:52:56.218Z,7.31
2024-02-18T10:55:34.277Z,7.32
2024-02-18T10:58:44.309Z,7.43
2024-02-18T11:01:18.493Z,7.48
2024-02-18T11:03:52.685Z,7.47
2024-02-18T11:06:22.040Z,7.50
2024-02-18T11:08:52.725Z,7.55
2024-02-18T11:11:23.766Z,7.54
2024-02-18T11:13:53.715Z,7.44
2024-02-18T11:16:23.425Z,7.29
2024-02-18T11:18:52.290Z,7.20
2024-02-18T11:21:21.701Z,7.14
2024-02-18T11:23:56.858Z,7.03
2024-02-18T11:26:25.251Z,6.94
2024-02-18T11:28:53.364Z,6.87
2024-02-18T11:31:29.209Z,6.81
2024-02-18T11:33:58.546Z,6.78
2024-02-18T11:36:28.806Z,6.74
2024-02-18T11:38:59.917Z,6.74
2024-02-18T11:41:31.939Z,6.76
2024-02-18T11:44:11.715Z,6.70
2024-02-18T11:46:46.560Z,6.57
2024-02-18T11:49:15.700Z,6.50
2024-02-18T11:51:44.510Z,6.46
2024-02-18T11:54:14.756Z,6.42
2024-02-18T11:56:42.724Z,6.37
2024-02-18T11:59:10.786Z,6.20
2024-02-18T12:01:39.024Z,5.99
2024-02-18T12:04:07.448Z,5.74
2024-02-18T12:06:35.841Z,5.59
2024-02-18T12:09:15.955Z,5.53
2024-02-18T12:11:46.531Z,5.46
2024-02-18T12:14:14.891Z,5.51
2024-02-18T12:16:46.988Z,5.60
2024-02-18T12:19:16.618Z,5.63
2024-02-18T12:21:54.442Z,5.69
2024-02-18T12:24:23.923Z,5.70
2024-02-18T12:26:52.598Z,5.66
2024-02-18T12:29:20.919Z,5.51
2024-02-18T12:31:50.604Z,5.32
2024-02-18T12:34:23.746Z,5.07
2024-02-18T12:36:52.097Z,4.96
2024-02-18T12:39:20.629Z,4.94
2024-02-18T12:41:48.956Z,4.93
2024-02-18T12:45:00.555Z,4.90
2024-02-18T12:47:05.968Z,4.85
2024-02-18T12:49:34.435Z,4.85
2024-02-18T12:52:11.932Z,4.85
2024-02-18T12:54:40.707Z,4.91
2024-02-18T12:57:09.385Z,4.92
2024-02-18T12:59:38.689Z,4.96
2024-02-18T13:02:08.222Z,5.00
2024-02-18T13:04:36.845Z,5.07
2024-02-18T13:07:10.396Z,5.10
2024-02-18T13:09:39.872Z,5.14
2024-02-18T13:12:08.378Z,5.18
2024-02-18T13:14:38.963Z,5.19
2024-02-18T13:17:07.068Z,5.26
2024-02-18T13:19:35.629Z,5.31
2024-02-18T13:22:04.784Z,5.29
2024-02-18T13:24:32.899Z,5.26
2024-02-18T13:27:01.046Z,5.26
2024-02-18T13:29:30.050Z,5.28
2024-02-18T13:31:58.408Z,5.30
2024-02-18T13:34:29.842Z,5.33
2024-02-18T13:37:00.759Z,5.33
2024-02-18T13:39:29.703Z,5.37
2024-02-18T13:41:57.982Z,5.39
2024-02-18T13:44:26.190Z,5.34
2024-02-18T13:46:54.361Z,5.31
2024-02-18T13:49:23.601Z,5.35
2024-02-18T13:51:52.196Z,5.42
2024-02-18T13:54:20.276Z,5.46
2024-02-18T13:56:48.492Z,5.51
2024-02-18T13:59:16.868Z,5.54
2024-02-18T14:01:46.831Z,5.54
2024-02-18T14:04:15.214Z,5.57
2024-02-18T14:06:43.470Z,5.54
2024-02-18T14:09:13.991Z,5.55
2024-02-18T14:11:43.531Z,5.61
2024-02-18T14:14:12.280Z,5.67
2024-02-18T14:16:40.899Z,5.67
2024-02-18T14:19:09.341Z,5.68
2024-02-18T14:21:38.072Z,5.68
2024-02-18T14:24:06.904Z,5.72
2024-02-18T14:26:35.183Z,5.74
2024-02-18T14:29:03.671Z,5.70
2024-02-18T14:31:31.792Z,5.65
2024-02-18T14:34:00.567Z,5.63
2024-02-18T14:36:28.835Z,5.64
2024-02-18T14:38:57.409Z,5.66
2024-02-18T14:41:25.945Z,5.69
2024-02-18T14:43:54.409Z,5.71
2024-02-18T14:46:22.589Z,5.69
2024-02-18T14:48:50.756Z,5.68
2024-02-18T14:51:18.927Z,5.65
2024-02-18T14:53:51.016Z,5.65
2024-02-18T14:56:21.668Z,5.67
2024-02-18T14:58:50.811Z,5.69
2024-02-18T15:01:20.626Z,5.66
2024-02-18T15:03:48.970Z,5.60
2024-02-18T15:06:17.812Z,5.52
2024-02-18T15:08:46.245Z,5.45
2024-02-18T15:11:17.399Z,5.39
2024-02-18T15:13:45.541Z,5.35
2024-02-18T15:16:14.824Z,5.32
2024-02-18T15:18:43.243Z,5.30
2024-02-18T15:21:12.727Z,5.29
2024-02-18T15:23:41.422Z,5.28
2024-02-18T15:26:10.757Z,5.26
2024-02-18T15:28:38.951Z,5.24
2024-02-18T15:31:13.247Z,5.22
2024-02-18T15:33:41.911Z,5.20
2024-02-18T15:36:13.123Z,5.20
2024-02-18T15:38:41.160Z,5.17
2024-02-18T15:41:09.278Z,5.13
2024-02-18T15:43:37.746Z,5.10
2024-02-18T15:46:06.625Z,5.08
2024-02-18T15:48:34.982Z,5.09
2024-02-18T15:51:03.308Z,5.09
2024-02-18T15:53:31.665Z,5.08
2024-02-18T15:56:02.678Z,5.00
2024-02-18T15:58:31.874Z,4.96
2024-02-18T16:01:02.139Z,4.93
2024-02-18T16:03:31.216Z,4.89
2024-02-18T16:05:59.757Z,4.87
2024-02-18T16:08:46.312Z,4.86
2024-02-18T16:11:15.857Z,4.84
2024-02-18T16:13:46.258Z,4.84
2024-02-18T16:16:16.193Z,4.84
2024-02-18T16:18:44.915Z,4.84
2024-02-18T16:21:13.131Z,4.84
2024-02-18T16:23:43.077Z,4.82
2024-02-18T16:26:15.748Z,4.79
2024-02-18T16:28:43.991Z,4.75
2024-02-18T16:31:12.385Z,4.73
2024-02-18T16:33:40.746Z,4.72
2024-02-18T16:36:09.123Z,4.71
2024-02-18T16:38:38.013Z,4.68
2024-02-18T16:41:06.095Z,4.66
2024-02-18T16:43:36.168Z,4.61
2024-02-18T16:46:05.170Z,4.58
2024-02-18T16:48:36.427Z,4.54
2024-02-18T16:51:06.634Z,4.52
2024-02-18T16:53:35.056Z,4.51
2024-02-18T16:56:04.103Z,4.51
2024-02-18T16:58:33.955Z,4.50
2024-02-18T17:01:02.478Z,4.47
2024-02-18T17:03:30.813Z,4.46
2024-02-18T17:05:59.023Z,4.46
2024-02-18T17:08:27.271Z,4.46
2024-02-18T17:10:55.563Z,4.45
2024-02-18T17:13:23.860Z,4.44
2024-02-18T17:15:53.943Z,4.42
2024-02-18T17:18:23.189Z,4.40
2024-02-18T17:20:51.336Z,4.37
2024-02-18T17:23:19.587Z,4.33
2024-02-18T17:25:47.669Z,4.31
2024-02-18T17:28:15.940Z,4.28
2024-02-18T17:30:44.270Z,4.26
2024-02-18T17:33:12.663Z,4.24
2024-02-18T17:35:41.061Z,4.22
2024-02-18T17:38:09.142Z,4.21
2024-02-18T17:40:37.320Z,4.20
2024-02-18T17:43:05.626Z,4.19
2024-02-18T17:45:33.752Z,4.20
2024-02-18T17:48:02.232Z,4.18
2024-02-18T17:50:30.621Z,4.18
2024-02-18T17:52:58.663Z,4.19
2024-02-18T17:55:31.249Z,4.19
2024-02-18T17:57:59.788Z,4.19
2024-02-18T18:00:31.228Z,4.18
2024-02-18T18:02:59.438Z,4.15
2024-02-18T18:05:27.887Z,4.15
2024-02-18T18:07:56.905Z,4.23
2024-02-18T18:10:28.787Z,4.24
2024-02-18T18:12:59.623Z,4.23
2024-02-18T18:15:28.335Z,4.23
2024-02-18T18:17:56.616Z,4.24
2024-02-18T18:20:26.076Z,4.24
2024-02-18T18:22:56.909Z,4.23
2024-02-18T18:25:25.098Z,4.24
2024-02-18T18:27:53.337Z,4.24
2024-02-18T18:30:21.884Z,4.24
2024-02-18T18:32:50.119Z,4.25
2024-02-18T18:35:19.738Z,4.26
2024-02-18T18:37:48.312Z,4.29
2024-02-18T18:40:16.516Z,4.31
2024-02-18T18:42:44.717Z,4.33
2024-02-18T18:45:13.582Z,4.34
2024-02-18T18:47:41.804Z,4.34
2024-02-18T18:50:10.517Z,4.33
2024-02-18T18:52:38.844Z,4.33
2024-02-18T18:55:07.768Z,4.32
2024-02-18T18:57:36.217Z,4.32
2024-02-18T19:00:07.154Z,4.34
2024-02-18T19:02:35.515Z,4.34
2024-02-18T19:05:04.269Z,4.32
2024-02-18T19:07:34.130Z,4.31
2024-02-18T19:10:07.065Z,4.29
2024-02-18T19:12:35.473Z,4.29
2024-02-18T19:15:06.639Z,4.26
2024-02-18T19:17:36.310Z,4.25
2024-02-18T19:20:07.409Z,4.25
2024-02-18T19:22:36.063Z,4.25
2024-02-18T19:25:05.088Z,4.27
2024-02-18T19:27:33.297Z,4.28
2024-02-18T19:30:02.339Z,4.27
2024-02-18T19:32:32.370Z,4.27
2024-02-18T19:35:01.029Z,4.29
2024-02-18T19:37:32.106Z,4.29
2024-02-18T19:40:01.498Z,4.29
2024-02-18T19:42:31.860Z,4.26
2024-02-18T19:45:00.878Z,4.26
2024-02-18T19:47:29.225Z,4.26
2024-02-18T19:49:57.636Z,4.27
2024-02-18T19:52:29.117Z,4.25
2024-02-18T19:54:57.827Z,4.25
2024-02-18T19:57:25.993Z,4.25
2024-02-18T19:59:54.171Z,4.25
2024-02-18T20:02:22.421Z,4.24
2024-02-18T20:04:50.664Z,4.25
2024-02-18T20:07:19.188Z,4.24
2024-02-18T20:09:47.598Z,4.23
2024-02-18T20:12:15.812Z,4.21
2024-02-18T20:14:46.048Z,4.18
2024-02-18T20:17:16.513Z,4.16
2024-02-18T20:19:47.278Z,4.15
2024-02-18T20:22:16.353Z,4.15
2024-02-18T20:24:46.337Z,4.14
2024-02-18T20:29:52.456Z,4.12
2024-02-18T20:32:21.177Z,4.12
2024-02-18T20:34:49.766Z,4.13
2024-02-18T20:37:18.155Z,4.13
2024-02-18T20:39:47.117Z,4.13
2024-02-18T20:42:18.931Z,4.13
2024-02-18T20:44:47.974Z,4.12
2024-02-18T20:47:16.751Z,4.14
2024-02-18T20:49:45.833Z,4.13
2024-02-18T20:52:14.310Z,4.14
2024-02-18T20:54:42.736Z,4.14
2024-02-18T20:57:11.055Z,4.15
2024-02-18T20:59:39.128Z,4.17
2024-02-18T21:02:07.636Z,4.17
2024-02-18T21:04:36.046Z,4.18
2024-02-18T21:07:04.639Z,4.18
2024-02-18T21:09:33.465Z,4.23
2024-02-18T21:12:01.662Z,4.41
2024-02-18T21:14:29.708Z,4.56
2024-02-18T21:16:58.022Z,4.63
2024-02-18T21:19:27.916Z,4.61
2024-02-18T21:21:56.346Z,4.72
2024-02-18T21:24:25.186Z,4.89
2024-02-18T21:26:54.727Z,4.88
2024-02-18T21:29:23.616Z,4.80
2024-02-18T21:31:51.981Z,4.73
2024-02-18T21:34:20.127Z,4.68
2024-02-18T21:36:48.500Z,4.68
2024-02-18T21:39:16.824Z,4.66
2024-02-18T21:41:46.448Z,4.61
2024-02-18T21:44:17.669Z,4.51
2024-02-18T21:46:47.662Z,4.42
2024-02-18T21:49:17.021Z,4.34
2024-02-18T21:51:45.378Z,4.29
2024-02-18T21:54:13.827Z,4.24
2024-02-18T21:56:42.321Z,4.22
2024-02-18T21:59:12.985Z,4.20
2024-02-18T22:01:42.904Z,4.19
2024-02-18T22:04:11.684Z,4.16
2024-02-18T22:06:54.997Z,4.14
2024-02-18T22:09:29.543Z,4.14
2024-02-18T22:11:58.203Z,4.13
2024-02-18T22:14:26.322Z,4.13
2024-02-18T22:16:54.434Z,4.11
2024-02-18T22:19:22.802Z,4.09
2024-02-18T22:21:51.364Z,4.08
2024-02-18T22:24:19.631Z,4.11
2024-02-18T22:26:48.157Z,4.12
2024-02-18T22:29:16.644Z,4.09
2024-02-18T22:31:45.095Z,4.06
2024-02-18T22:34:14.199Z,4.03
2024-02-18T22:36:47.200Z,4.01
2024-02-18T22:39:21.115Z,3.99
2024-02-18T22:41:49.498Z,3.97
2024-02-18T22:44:17.556Z,3.98
2024-02-18T22:46:46.622Z,3.97
2024-02-18T22:49:14.998Z,3.96
2024-02-18T22:51:47.360Z,3.94
2024-02-18T22:54:15.578Z,3.91
2024-02-18T22:56:44.177Z,3.88
2024-02-18T22:59:12.392Z,3.85
2024-02-18T23:01:40.943Z,3.82
2024-02-18T23:04:09.239Z,3.81
2024-02-18T23:06:37.581Z,3.80
2024-02-18T23:09:06.883Z,3.78
2024-02-18T23:11:35.092Z,3.76
2024-02-18T23:14:03.323Z,3.75
2024-02-18T23:16:31.450Z,3.74
2024-02-18T23:18:59.628Z,3.73
2024-02-18T23:21:28.422Z,3.72
2024-02-18T23:23:56.644Z,3.72
2024-02-18T23:26:24.875Z,3.73
2024-02-18T23:28:53.185Z,3.73
2024-02-18T23:31:21.389Z,3.75
2024-02-18T23:33:50.335Z,3.75
2024-02-18T23:36:18.933Z,3.75
2024-02-18T23:38:47.215Z,3.74
2024-02-18T23:41:15.488Z,3.74
2024-02-18T23:43:45.213Z,3.74
2024-02-18T23:46:13.454Z,3.74
2024-02-18T23:48:41.883Z,3.73
2024-02-18T23:51:10.329Z,3.73
2024-02-18T23:53:38.715Z,3.73
2024-02-18T23:56:09.210Z,3.72
2024-02-18T23:58:37.634Z,3.73
